sensor_id;sensor_type;location;lat;lon;timestamp;temperature;humidity
33476;DHT22;19814;48.224;11.422;2023-07-28T00:00:50;15.40;99.90
33476;DHT22;19814;48.224;11.422;2023-07-28T00:03:15;15.30;99.90
33476;DHT22;19814;48.224;11.422;2023-07-28T00:05:41;15.30;99.90
33476;DHT22;19814;48.224;11.422;2023-07-28T00:08:06;15.30;99.90
33476;DHT22;19814;48.224;11.422;2023-07-28T00:10:32;15.40;99.90
33476;DHT22;19814;48.224;11.422;2023-07-28T00:12:59;15.40;99.90
33476;DHT22;19814;48.224;11.422;2023-07-28T00:15:25;15.40;99.90
33476;DHT22;19814;48.224;11.422;2023-07-28T00:17:50;15.40;99.90
33476;DHT22;19814;48.224;11.422;2023-07-28T00:20:16;15.40;99.90
33476;DHT22;19814;48.224;11.422;2023-07-28T00:22:41;15.50;99.90
33476;DHT22;19814;48.224;11.422;2023-07-28T00:25:07;15.50;99.90
33476;DHT22;19814;48.224;11.422;2023-07-28T00:27:33;15.50;99.90
33476;DHT22;19814;48.224;11.422;2023-07-28T00:29:58;15.50;99.90
33476;DHT22;19814;48.224;11.422;2023-07-28T00:32:24;15.50;99.90
33476;DHT22;19814;48.224;11.422;2023-07-28T00:34:49;15.50;99.90
33476;DHT22;19814;48.224;11.422;2023-07-28T00:37:15;15.50;99.90
33476;DHT22;19814;48.224;11.422;2023-07-28T00:39:40;15.50;99.90
33476;DHT22;19814;48.224;11.422;2023-07-28T00:42:06;15.50;99.90
33476;DHT22;19814;48.224;11.422;2023-07-28T00:44:32;15.50;99.90
33476;DHT22;19814;48.224;11.422;2023-07-28T00:46:57;15.50;99.90
33476;DHT22;19814;48.224;11.422;2023-07-28T00:49:23;15.50;99.90
33476;DHT22;19814;48.224;11.422;2023-07-28T00:51:49;15.50;99.90
33476;DHT22;19814;48.224;11.422;2023-07-28T00:54:16;15.50;99.90
33476;DHT22;19814;48.224;11.422;2023-07-28T00:56:42;15.60;99.90
33476;DHT22;19814;48.224;11.422;2023-07-28T00:59:08;15.50;99.90
33476;DHT22;19814;48.224;11.422;2023-07-28T01:01:33;15.50;99.90
33476;DHT22;19814;48.224;11.422;2023-07-28T01:03:59;15.50;99.90
33476;DHT22;19814;48.224;11.422;2023-07-28T01:06:41;15.50;99.90
33476;DHT22;19814;48.224;11.422;2023-07-28T01:09:19;15.40;99.90
33476;DHT22;19814;48.224;11.422;2023-07-28T01:11:57;15.30;99.90
33476;DHT22;19814;48.224;11.422;2023-07-28T01:14:23;15.30;99.90
33476;DHT22;19814;48.224;11.422;2023-07-28T01:16:48;15.30;99.90
33476;DHT22;19814;48.224;11.422;2023-07-28T01:19:17;15.20;99.90
33476;DHT22;19814;48.224;11.422;2023-07-28T01:21:48;15.30;99.90
33476;DHT22;19814;48.224;11.422;2023-07-28T01:24:31;15.20;99.90
33476;DHT22;19814;48.224;11.422;2023-07-28T01:27:02;15.20;99.90
33476;DHT22;19814;48.224;11.422;2023-07-28T01:29:28;15.10;99.90
33476;DHT22;19814;48.224;11.422;2023-07-28T01:31:54;15.10;99.90
33476;DHT22;19814;48.224;11.422;2023-07-28T01:34:20;15.00;99.90
33476;DHT22;19814;48.224;11.422;2023-07-28T01:36:45;15.00;99.90
33476;DHT22;19814;48.224;11.422;2023-07-28T01:39:11;15.00;99.90
33476;DHT22;19814;48.224;11.422;2023-07-28T01:41:36;14.90;99.90
33476;DHT22;19814;48.224;11.422;2023-07-28T01:44:02;14.90;99.90
33476;DHT22;19814;48.224;11.422;2023-07-28T01:46:28;14.90;99.90
33476;DHT22;19814;48.224;11.422;2023-07-28T01:48:53;14.90;99.90
33476;DHT22;19814;48.224;11.422;2023-07-28T01:51:19;14.80;99.90
33476;DHT22;19814;48.224;11.422;2023-07-28T01:53:44;14.80;99.90
33476;DHT22;19814;48.224;11.422;2023-07-28T01:56:10;14.80;99.90
33476;DHT22;19814;48.224;11.422;2023-07-28T01:58:35;14.80;99.90
33476;DHT22;19814;48.224;11.422;2023-07-28T02:01:01;14.90;99.90
33476;DHT22;19814;48.224;11.422;2023-07-28T02:03:26;14.90;99.90
33476;DHT22;19814;48.224;11.422;2023-07-28T02:05:52;14.80;99.90
33476;DHT22;19814;48.224;11.422;2023-07-28T02:08:18;14.80;99.90
33476;DHT22;19814;48.224;11.422;2023-07-28T02:10:44;14.80;99.90
33476;DHT22;19814;48.224;11.422;2023-07-28T02:13:10;14.80;99.90
33476;DHT22;19814;48.224;11.422;2023-07-28T02:15:35;14.80;99.90
33476;DHT22;19814;48.224;11.422;2023-07-28T02:18:01;14.80;99.90
33476;DHT22;19814;48.224;11.422;2023-07-28T02:20:26;14.80;99.90
33476;DHT22;19814;48.224;11.422;2023-07-28T02:22:52;14.80;99.90
33476;DHT22;19814;48.224;11.422;2023-07-28T02:25:17;14.80;99.90
33476;DHT22;19814;48.224;11.422;2023-07-28T02:27:43;14.90;99.90
33476;DHT22;19814;48.224;11.422;2023-07-28T02:30:09;14.80;99.90
33476;DHT22;19814;48.224;11.422;2023-07-28T02:32:35;14.80;99.90
33476;DHT22;19814;48.224;11.422;2023-07-28T02:35:01;14.80;99.90
33476;DHT22;19814;48.224;11.422;2023-07-28T02:37:26;14.80;99.90
33476;DHT22;19814;48.224;11.422;2023-07-28T02:39:52;14.90;99.90
33476;DHT22;19814;48.224;11.422;2023-07-28T02:42:17;14.90;99.90
33476;DHT22;19814;48.224;11.422;2023-07-28T02:44:43;14.90;99.90
33476;DHT22;19814;48.224;11.422;2023-07-28T02:47:08;14.90;99.90
33476;DHT22;19814;48.224;11.422;2023-07-28T02:49:34;14.80;99.90
33476;DHT22;19814;48.224;11.422;2023-07-28T02:51:59;14.90;99.90
33476;DHT22;19814;48.224;11.422;2023-07-28T02:54:25;14.90;99.90
33476;DHT22;19814;48.224;11.422;2023-07-28T02:56:51;14.90;99.90
33476;DHT22;19814;48.224;11.422;2023-07-28T02:59:17;14.90;99.90
33476;DHT22;19814;48.224;11.422;2023-07-28T03:01:43;14.80;99.90
33476;DHT22;19814;48.224;11.422;2023-07-28T03:04:09;14.90;99.90
33476;DHT22;19814;48.224;11.422;2023-07-28T03:06:34;14.90;99.90
33476;DHT22;19814;48.224;11.422;2023-07-28T03:09:00;14.90;99.90
33476;DHT22;19814;48.224;11.422;2023-07-28T03:11:25;14.90;99.90
33476;DHT22;19814;48.224;11.422;2023-07-28T03:13:51;14.90;99.90
33476;DHT22;19814;48.224;11.422;2023-07-28T03:16:16;14.90;99.90
33476;DHT22;19814;48.224;11.422;2023-07-28T03:18:42;14.90;99.90
33476;DHT22;19814;48.224;11.422;2023-07-28T03:21:09;14.80;99.90
33476;DHT22;19814;48.224;11.422;2023-07-28T03:23:34;14.60;99.90
33476;DHT22;19814;48.224;11.422;2023-07-28T03:26:00;14.60;99.90
33476;DHT22;19814;48.224;11.422;2023-07-28T03:28:26;14.50;99.90
33476;DHT22;19814;48.224;11.422;2023-07-28T03:30:51;14.40;99.90
33476;DHT22;19814;48.224;11.422;2023-07-28T03:33:17;14.30;99.90
33476;DHT22;19814;48.224;11.422;2023-07-28T03:35:42;14.30;99.90
33476;DHT22;19814;48.224;11.422;2023-07-28T03:38:08;14.30;99.90
33476;DHT22;19814;48.224;11.422;2023-07-28T03:40:34;14.30;99.90
33476;DHT22;19814;48.224;11.422;2023-07-28T03:42:59;14.30;99.90
33476;DHT22;19814;48.224;11.422;2023-07-28T03:45:25;14.30;99.90
33476;DHT22;19814;48.224;11.422;2023-07-28T03:47:51;14.30;99.90
33476;DHT22;19814;48.224;11.422;2023-07-28T03:50:16;14.40;99.90
33476;DHT22;19814;48.224;11.422;2023-07-28T03:52:42;14.40;99.90
33476;DHT22;19814;48.224;11.422;2023-07-28T03:55:07;14.40;99.90
33476;DHT22;19814;48.224;11.422;2023-07-28T03:57:33;14.40;99.90
33476;DHT22;19814;48.224;11.422;2023-07-28T03:59:58;14.50;99.90
33476;DHT22;19814;48.224;11.422;2023-07-28T04:02:24;14.50;99.90
33476;DHT22;19814;48.224;11.422;2023-07-28T04:04:56;14.50;99.90
33476;DHT22;19814;48.224;11.422;2023-07-28T04:07:22;14.50;99.90
33476;DHT22;19814;48.224;11.422;2023-07-28T04:09:48;14.60;99.90
33476;DHT22;19814;48.224;11.422;2023-07-28T04:12:13;14.60;99.90
33476;DHT22;19814;48.224;11.422;2023-07-28T04:14:39;14.60;99.90
33476;DHT22;19814;48.224;11.422;2023-07-28T04:17:05;14.70;99.90
33476;DHT22;19814;48.224;11.422;2023-07-28T04:19:30;14.70;99.90
33476;DHT22;19814;48.224;11.422;2023-07-28T04:22:02;14.80;99.90
33476;DHT22;19814;48.224;11.422;2023-07-28T04:24:28;14.90;99.90
33476;DHT22;19814;48.224;11.422;2023-07-28T04:26:53;15.00;99.90
33476;DHT22;19814;48.224;11.422;2023-07-28T04:29:19;15.10;99.90
33476;DHT22;19814;48.224;11.422;2023-07-28T04:31:44;15.20;99.90
33476;DHT22;19814;48.224;11.422;2023-07-28T04:34:10;15.20;99.90
33476;DHT22;19814;48.224;11.422;2023-07-28T04:36:36;15.30;99.90
33476;DHT22;19814;48.224;11.422;2023-07-28T04:39:01;15.40;99.90
33476;DHT22;19814;48.224;11.422;2023-07-28T04:41:27;15.50;99.90
33476;DHT22;19814;48.224;11.422;2023-07-28T04:43:52;15.50;99.90
33476;DHT22;19814;48.224;11.422;2023-07-28T04:46:18;15.60;99.90
33476;DHT22;19814;48.224;11.422;2023-07-28T04:48:45;15.60;99.90
33476;DHT22;19814;48.224;11.422;2023-07-28T04:51:11;15.70;99.90
33476;DHT22;19814;48.224;11.422;2023-07-28T04:53:36;15.70;99.90
33476;DHT22;19814;48.224;11.422;2023-07-28T04:56:02;15.80;99.90
33476;DHT22;19814;48.224;11.422;2023-07-28T04:58:28;15.90;99.90
33476;DHT22;19814;48.224;11.422;2023-07-28T05:00:54;15.90;99.90
33476;DHT22;19814;48.224;11.422;2023-07-28T05:03:20;16.10;99.90
33476;DHT22;19814;48.224;11.422;2023-07-28T05:05:45;16.10;99.90
33476;DHT22;19814;48.224;11.422;2023-07-28T05:08:11;16.20;99.90
33476;DHT22;19814;48.224;11.422;2023-07-28T05:10:37;16.30;99.90
33476;DHT22;19814;48.224;11.422;2023-07-28T05:13:02;16.30;99.90
33476;DHT22;19814;48.224;11.422;2023-07-28T05:15:30;16.30;99.90
33476;DHT22;19814;48.224;11.422;2023-07-28T05:17:56;16.40;99.90
33476;DHT22;19814;48.224;11.422;2023-07-28T05:20:21;16.50;99.90
33476;DHT22;19814;48.224;11.422;2023-07-28T05:22:47;16.60;99.90
33476;DHT22;19814;48.224;11.422;2023-07-28T05:25:13;16.80;99.90
33476;DHT22;19814;48.224;11.422;2023-07-28T05:27:38;16.80;99.90
33476;DHT22;19814;48.224;11.422;2023-07-28T05:30:04;16.90;99.90
33476;DHT22;19814;48.224;11.422;2023-07-28T05:32:30;17.00;99.90
33476;DHT22;19814;48.224;11.422;2023-07-28T05:34:55;17.10;99.90
33476;DHT22;19814;48.224;11.422;2023-07-28T05:37:21;17.20;99.90
33476;DHT22;19814;48.224;11.422;2023-07-28T05:39:47;17.20;99.90
33476;DHT22;19814;48.224;11.422;2023-07-28T05:42:12;17.30;99.90
33476;DHT22;19814;48.224;11.422;2023-07-28T05:44:38;17.40;99.90
33476;DHT22;19814;48.224;11.422;2023-07-28T05:47:03;17.40;99.90
33476;DHT22;19814;48.224;11.422;2023-07-28T05:49:30;17.40;99.90
33476;DHT22;19814;48.224;11.422;2023-07-28T05:51:55;17.40;99.90
33476;DHT22;19814;48.224;11.422;2023-07-28T05:54:21;17.50;99.90
33476;DHT22;19814;48.224;11.422;2023-07-28T05:56:47;17.60;99.90
33476;DHT22;19814;48.224;11.422;2023-07-28T05:59:12;17.80;99.90
33476;DHT22;19814;48.224;11.422;2023-07-28T06:01:38;18.00;99.90
33476;DHT22;19814;48.224;11.422;2023-07-28T06:04:06;18.20;99.90
33476;DHT22;19814;48.224;11.422;2023-07-28T06:06:32;18.40;99.90
33476;DHT22;19814;48.224;11.422;2023-07-28T06:09:00;18.60;99.90
33476;DHT22;19814;48.224;11.422;2023-07-28T06:11:26;18.70;99.90
33476;DHT22;19814;48.224;11.422;2023-07-28T06:13:51;18.70;99.90
33476;DHT22;19814;48.224;11.422;2023-07-28T06:16:17;18.90;99.90
33476;DHT22;19814;48.224;11.422;2023-07-28T06:18:43;19.00;99.90
33476;DHT22;19814;48.224;11.422;2023-07-28T06:21:08;19.20;99.90
33476;DHT22;19814;48.224;11.422;2023-07-28T06:23:34;19.30;99.90
33476;DHT22;19814;48.224;11.422;2023-07-28T06:26:03;19.30;99.90
33476;DHT22;19814;48.224;11.422;2023-07-28T06:28:28;19.40;99.90
33476;DHT22;19814;48.224;11.422;2023-07-28T06:30:55;19.50;99.90
33476;DHT22;19814;48.224;11.422;2023-07-28T06:33:21;19.50;99.90
33476;DHT22;19814;48.224;11.422;2023-07-28T06:35:47;19.60;99.90
33476;DHT22;19814;48.224;11.422;2023-07-28T06:38:12;19.70;99.90
33476;DHT22;19814;48.224;11.422;2023-07-28T06:40:38;19.90;99.90
33476;DHT22;19814;48.224;11.422;2023-07-28T06:43:03;20.10;99.90
33476;DHT22;19814;48.224;11.422;2023-07-28T06:45:29;20.40;99.90
33476;DHT22;19814;48.224;11.422;2023-07-28T06:47:55;20.50;99.90
33476;DHT22;19814;48.224;11.422;2023-07-28T06:50:20;20.60;99.90
33476;DHT22;19814;48.224;11.422;2023-07-28T06:52:46;20.70;99.90
33476;DHT22;19814;48.224;11.422;2023-07-28T06:55:14;20.70;99.90
33476;DHT22;19814;48.224;11.422;2023-07-28T06:57:40;20.90;99.90
33476;DHT22;19814;48.224;11.422;2023-07-28T07:00:07;20.80;99.90
33476;DHT22;19814;48.224;11.422;2023-07-28T07:02:35;21.00;99.90
33476;DHT22;19814;48.224;11.422;2023-07-28T07:05:01;21.20;99.90
33476;DHT22;19814;48.224;11.422;2023-07-28T07:07:26;21.30;99.90
33476;DHT22;19814;48.224;11.422;2023-07-28T07:09:52;21.60;99.90
33476;DHT22;19814;48.224;11.422;2023-07-28T07:12:17;21.80;99.90
33476;DHT22;19814;48.224;11.422;2023-07-28T07:14:44;22.10;99.90
33476;DHT22;19814;48.224;11.422;2023-07-28T07:17:10;22.30;99.90
33476;DHT22;19814;48.224;11.422;2023-07-28T07:19:35;22.30;99.90
33476;DHT22;19814;48.224;11.422;2023-07-28T07:22:01;22.60;99.90
33476;DHT22;19814;48.224;11.422;2023-07-28T07:24:27;22.80;99.90
33476;DHT22;19814;48.224;11.422;2023-07-28T07:26:53;22.80;99.90
33476;DHT22;19814;48.224;11.422;2023-07-28T07:29:18;22.90;99.90
33476;DHT22;19814;48.224;11.422;2023-07-28T07:31:44;22.80;99.90
33476;DHT22;19814;48.224;11.422;2023-07-28T07:34:09;22.70;99.90
33476;DHT22;19814;48.224;11.422;2023-07-28T07:36:35;22.60;99.90
33476;DHT22;19814;48.224;11.422;2023-07-28T07:39:00;22.40;99.90
33476;DHT22;19814;48.224;11.422;2023-07-28T07:41:26;22.30;99.90
33476;DHT22;19814;48.224;11.422;2023-07-28T07:43:54;22.10;99.90
33476;DHT22;19814;48.224;11.422;2023-07-28T07:46:23;22.10;99.90
33476;DHT22;19814;48.224;11.422;2023-07-28T07:48:52;22.30;99.90
33476;DHT22;19814;48.224;11.422;2023-07-28T07:51:18;22.50;99.90
33476;DHT22;19814;48.224;11.422;2023-07-28T07:53:44;22.70;99.80
33476;DHT22;19814;48.224;11.422;2023-07-28T07:56:09;23.00;99.80
33476;DHT22;19814;48.224;11.422;2023-07-28T07:58:35;23.10;99.90
33476;DHT22;19814;48.224;11.422;2023-07-28T08:01:02;23.60;99.90
33476;DHT22;19814;48.224;11.422;2023-07-28T08:03:27;23.70;99.00
33476;DHT22;19814;48.224;11.422;2023-07-28T08:05:53;23.90;99.20
33476;DHT22;19814;48.224;11.422;2023-07-28T08:08:19;24.40;99.20
33476;DHT22;19814;48.224;11.422;2023-07-28T08:10:49;24.60;95.40
33476;DHT22;19814;48.224;11.422;2023-07-28T08:13:15;24.40;96.40
33476;DHT22;19814;48.224;11.422;2023-07-28T08:15:44;24.20;97.20
33476;DHT22;19814;48.224;11.422;2023-07-28T08:18:11;24.40;97.60
33476;DHT22;19814;48.224;11.422;2023-07-28T08:20:37;24.60;97.90
33476;DHT22;19814;48.224;11.422;2023-07-28T08:23:03;25.00;94.60
33476;DHT22;19814;48.224;11.422;2023-07-28T08:25:28;25.00;95.80
33476;DHT22;19814;48.224;11.422;2023-07-28T08:27:54;25.30;95.90
33476;DHT22;19814;48.224;11.422;2023-07-28T08:30:19;25.50;97.10
33476;DHT22;19814;48.224;11.422;2023-07-28T08:32:45;25.80;96.50
33476;DHT22;19814;48.224;11.422;2023-07-28T08:35:11;25.90;95.40
33476;DHT22;19814;48.224;11.422;2023-07-28T08:37:36;26.10;95.70
33476;DHT22;19814;48.224;11.422;2023-07-28T08:40:02;26.20;96.00
33476;DHT22;19814;48.224;11.422;2023-07-28T08:42:30;26.40;96.40
33476;DHT22;19814;48.224;11.422;2023-07-28T08:44:57;26.30;94.20
33476;DHT22;19814;48.224;11.422;2023-07-28T08:47:22;26.30;95.00
33476;DHT22;19814;48.224;11.422;2023-07-28T08:49:48;26.40;94.40
33476;DHT22;19814;48.224;11.422;2023-07-28T08:52:17;26.60;93.40
33476;DHT22;19814;48.224;11.422;2023-07-28T08:54:43;26.40;93.60
33476;DHT22;19814;48.224;11.422;2023-07-28T08:57:09;26.40;93.20
33476;DHT22;19814;48.224;11.422;2023-07-28T08:59:35;25.90;93.80
33476;DHT22;19814;48.224;11.422;2023-07-28T09:02:01;25.40;94.20
33476;DHT22;19814;48.224;11.422;2023-07-28T09:04:27;25.40;94.40
33476;DHT22;19814;48.224;11.422;2023-07-28T09:06:53;25.10;94.70
33476;DHT22;19814;48.224;11.422;2023-07-28T09:09:21;24.80;93.90
33476;DHT22;19814;48.224;11.422;2023-07-28T09:11:53;24.60;94.50
33476;DHT22;19814;48.224;11.422;2023-07-28T09:14:21;24.10;94.50
33476;DHT22;19814;48.224;11.422;2023-07-28T09:16:49;24.00;95.20
33476;DHT22;19814;48.224;11.422;2023-07-28T09:19:15;23.80;95.40
33476;DHT22;19814;48.224;11.422;2023-07-28T09:21:42;23.60;95.10
33476;DHT22;19814;48.224;11.422;2023-07-28T09:24:10;23.60;95.20
33476;DHT22;19814;48.224;11.422;2023-07-28T09:26:39;23.50;94.90
33476;DHT22;19814;48.224;11.422;2023-07-28T09:29:17;23.40;94.80
33476;DHT22;19814;48.224;11.422;2023-07-28T09:31:43;23.20;95.30
33476;DHT22;19814;48.224;11.422;2023-07-28T09:34:10;23.30;95.30
33476;DHT22;19814;48.224;11.422;2023-07-28T09:36:37;23.20;95.10
33476;DHT22;19814;48.224;11.422;2023-07-28T09:39:06;23.40;95.50
33476;DHT22;19814;48.224;11.422;2023-07-28T09:41:35;23.50;95.00
33476;DHT22;19814;48.224;11.422;2023-07-28T09:44:02;23.70;95.20
33476;DHT22;19814;48.224;11.422;2023-07-28T09:46:29;24.00;95.30
33476;DHT22;19814;48.224;11.422;2023-07-28T09:48:57;24.20;94.90
33476;DHT22;19814;48.224;11.422;2023-07-28T09:51:30;24.30;94.90
33476;DHT22;19814;48.224;11.422;2023-07-28T09:54:12;24.30;94.80
33476;DHT22;19814;48.224;11.422;2023-07-28T09:56:38;24.40;94.60
33476;DHT22;19814;48.224;11.422;2023-07-28T09:59:10;24.40;94.50
33476;DHT22;19814;48.224;11.422;2023-07-28T10:01:38;24.50;94.80
33476;DHT22;19814;48.224;11.422;2023-07-28T10:04:04;24.60;95.00
33476;DHT22;19814;48.224;11.422;2023-07-28T10:06:31;24.70;95.00
33476;DHT22;19814;48.224;11.422;2023-07-28T10:08:57;24.60;95.00
33476;DHT22;19814;48.224;11.422;2023-07-28T10:11:23;24.60;94.30
33476;DHT22;19814;48.224;11.422;2023-07-28T10:13:51;24.50;93.60
33476;DHT22;19814;48.224;11.422;2023-07-28T10:16:19;24.30;93.90
33476;DHT22;19814;48.224;11.422;2023-07-28T10:18:54;24.30;93.50
33476;DHT22;19814;48.224;11.422;2023-07-28T10:21:20;24.00;93.30
33476;DHT22;19814;48.224;11.422;2023-07-28T10:23:57;24.00;93.80
33476;DHT22;19814;48.224;11.422;2023-07-28T10:26:38;23.80;93.90
33476;DHT22;19814;48.224;11.422;2023-07-28T10:29:14;23.80;93.90
33476;DHT22;19814;48.224;11.422;2023-07-28T10:31:51;23.90;94.00
33476;DHT22;19814;48.224;11.422;2023-07-28T10:34:18;23.90;93.10
33476;DHT22;19814;48.224;11.422;2023-07-28T10:36:44;23.90;94.10
33476;DHT22;19814;48.224;11.422;2023-07-28T10:39:17;23.70;94.20
33476;DHT22;19814;48.224;11.422;2023-07-28T10:44:28;23.90;94.60
33476;DHT22;19814;48.224;11.422;2023-07-28T10:46:54;23.90;94.20
33476;DHT22;19814;48.224;11.422;2023-07-28T10:49:20;24.10;95.30
33476;DHT22;19814;48.224;11.422;2023-07-28T10:51:46;24.30;93.60
33476;DHT22;19814;48.224;11.422;2023-07-28T10:54:12;24.50;93.80
33476;DHT22;19814;48.224;11.422;2023-07-28T10:56:41;24.50;93.90
33476;DHT22;19814;48.224;11.422;2023-07-28T10:59:07;24.60;92.10
33476;DHT22;19814;48.224;11.422;2023-07-28T11:01:38;24.70;93.60
33476;DHT22;19814;48.224;11.422;2023-07-28T11:04:10;24.90;93.30
33476;DHT22;19814;48.224;11.422;2023-07-28T11:06:38;25.10;93.70
33476;DHT22;19814;48.224;11.422;2023-07-28T11:09:08;25.10;92.30
33476;DHT22;19814;48.224;11.422;2023-07-28T11:11:38;25.00;93.10
33476;DHT22;19814;48.224;11.422;2023-07-28T11:14:05;24.70;93.10
33476;DHT22;19814;48.224;11.422;2023-07-28T11:16:34;24.80;93.50
33476;DHT22;19814;48.224;11.422;2023-07-28T11:19:01;24.80;92.10
33476;DHT22;19814;48.224;11.422;2023-07-28T11:21:29;24.50;91.40
33476;DHT22;19814;48.224;11.422;2023-07-28T11:23:54;24.50;93.10
33476;DHT22;19814;48.224;11.422;2023-07-28T11:26:21;24.50;92.80
33476;DHT22;19814;48.224;11.422;2023-07-28T11:28:47;24.30;92.20
33476;DHT22;19814;48.224;11.422;2023-07-28T11:31:13;24.20;93.30
33476;DHT22;19814;48.224;11.422;2023-07-28T11:33:39;24.30;93.10
33476;DHT22;19814;48.224;11.422;2023-07-28T11:36:05;24.20;92.90
33476;DHT22;19814;48.224;11.422;2023-07-28T11:38:32;24.30;92.50
33476;DHT22;19814;48.224;11.422;2023-07-28T11:40:58;24.10;92.70
33476;DHT22;19814;48.224;11.422;2023-07-28T11:43:25;24.00;92.20
33476;DHT22;19814;48.224;11.422;2023-07-28T11:45:51;23.80;92.40
33476;DHT22;19814;48.224;11.422;2023-07-28T11:48:17;23.70;92.80
33476;DHT22;19814;48.224;11.422;2023-07-28T11:50:43;23.70;93.60
33476;DHT22;19814;48.224;11.422;2023-07-28T11:53:10;23.80;93.90
33476;DHT22;19814;48.224;11.422;2023-07-28T11:55:37;24.00;94.00
33476;DHT22;19814;48.224;11.422;2023-07-28T11:58:05;24.20;94.20
33476;DHT22;19814;48.224;11.422;2023-07-28T12:00:31;24.60;93.50
33476;DHT22;19814;48.224;11.422;2023-07-28T12:03:07;24.90;93.20
33476;DHT22;19814;48.224;11.422;2023-07-28T12:05:38;25.00;92.60
33476;DHT22;19814;48.224;11.422;2023-07-28T12:08:04;25.10;92.50
33476;DHT22;19814;48.224;11.422;2023-07-28T12:10:30;25.10;91.10
33476;DHT22;19814;48.224;11.422;2023-07-28T12:12:57;24.80;91.70
33476;DHT22;19814;48.224;11.422;2023-07-28T12:15:29;24.70;90.80
33476;DHT22;19814;48.224;11.422;2023-07-28T12:18:22;24.50;91.40
33476;DHT22;19814;48.224;11.422;2023-07-28T12:20:51;24.40;92.20
33476;DHT22;19814;48.224;11.422;2023-07-28T12:23:19;24.30;92.60
33476;DHT22;19814;48.224;11.422;2023-07-28T12:25:45;24.20;92.20
33476;DHT22;19814;48.224;11.422;2023-07-28T12:28:30;24.00;92.10
33476;DHT22;19814;48.224;11.422;2023-07-28T12:30:56;23.80;92.30
33476;DHT22;19814;48.224;11.422;2023-07-28T12:33:24;23.70;92.70
33476;DHT22;19814;48.224;11.422;2023-07-28T12:35:51;23.90;92.80
33476;DHT22;19814;48.224;11.422;2023-07-28T12:38:17;24.00;92.70
33476;DHT22;19814;48.224;11.422;2023-07-28T12:40:42;24.20;93.00
33476;DHT22;19814;48.224;11.422;2023-07-28T12:43:08;24.30;92.90
33476;DHT22;19814;48.224;11.422;2023-07-28T12:45:33;24.20;92.30
33476;DHT22;19814;48.224;11.422;2023-07-28T12:47:59;24.20;92.80
33476;DHT22;19814;48.224;11.422;2023-07-28T12:50:25;24.10;93.60
33476;DHT22;19814;48.224;11.422;2023-07-28T12:52:51;24.10;93.20
33476;DHT22;19814;48.224;11.422;2023-07-28T12:55:17;24.10;93.40
33476;DHT22;19814;48.224;11.422;2023-07-28T12:57:44;24.20;93.50
33476;DHT22;19814;48.224;11.422;2023-07-28T13:00:10;24.10;93.30
33476;DHT22;19814;48.224;11.422;2023-07-28T13:02:40;24.10;93.10
33476;DHT22;19814;48.224;11.422;2023-07-28T13:05:06;24.00;93.30
33476;DHT22;19814;48.224;11.422;2023-07-28T13:07:32;23.90;93.80
33476;DHT22;19814;48.224;11.422;2023-07-28T13:09:58;23.80;93.50
33476;DHT22;19814;48.224;11.422;2023-07-28T13:12:23;23.70;94.00
33476;DHT22;19814;48.224;11.422;2023-07-28T13:14:49;23.80;93.40
33476;DHT22;19814;48.224;11.422;2023-07-28T13:17:15;23.80;93.60
33476;DHT22;19814;48.224;11.422;2023-07-28T13:19:41;23.70;93.50
33476;DHT22;19814;48.224;11.422;2023-07-28T13:22:07;23.80;93.60
33476;DHT22;19814;48.224;11.422;2023-07-28T13:24:32;23.80;93.80
33476;DHT22;19814;48.224;11.422;2023-07-28T13:26:58;24.00;94.20
33476;DHT22;19814;48.224;11.422;2023-07-28T13:29:24;24.10;94.00
33476;DHT22;19814;48.224;11.422;2023-07-28T13:31:49;24.20;93.80
33476;DHT22;19814;48.224;11.422;2023-07-28T13:34:15;24.10;94.00
33476;DHT22;19814;48.224;11.422;2023-07-28T13:36:40;24.10;93.50
33476;DHT22;19814;48.224;11.422;2023-07-28T13:39:08;24.10;93.90
33476;DHT22;19814;48.224;11.422;2023-07-28T13:41:34;24.20;94.20
33476;DHT22;19814;48.224;11.422;2023-07-28T13:44:06;24.20;94.00
33476;DHT22;19814;48.224;11.422;2023-07-28T13:46:31;24.20;93.70
33476;DHT22;19814;48.224;11.422;2023-07-28T13:48:57;24.40;93.20
33476;DHT22;19814;48.224;11.422;2023-07-28T13:51:22;24.40;92.90
33476;DHT22;19814;48.224;11.422;2023-07-28T13:53:48;24.30;92.40
33476;DHT22;19814;48.224;11.422;2023-07-28T13:56:14;24.30;93.40
33476;DHT22;19814;48.224;11.422;2023-07-28T13:58:39;24.30;92.70
33476;DHT22;19814;48.224;11.422;2023-07-28T14:01:05;24.20;93.50
33476;DHT22;19814;48.224;11.422;2023-07-28T14:03:31;24.10;93.50
33476;DHT22;19814;48.224;11.422;2023-07-28T14:05:56;24.00;93.30
33476;DHT22;19814;48.224;11.422;2023-07-28T14:08:22;23.90;93.70
33476;DHT22;19814;48.224;11.422;2023-07-28T14:10:52;24.00;93.90
33476;DHT22;19814;48.224;11.422;2023-07-28T14:13:17;24.00;92.70
33476;DHT22;19814;48.224;11.422;2023-07-28T14:15:43;23.90;92.50
33476;DHT22;19814;48.224;11.422;2023-07-28T14:18:09;23.80;93.20
33476;DHT22;19814;48.224;11.422;2023-07-28T14:20:34;23.70;92.90
33476;DHT22;19814;48.224;11.422;2023-07-28T14:23:00;23.60;92.90
33476;DHT22;19814;48.224;11.422;2023-07-28T14:25:28;23.50;95.30
33476;DHT22;19814;48.224;11.422;2023-07-28T14:27:54;23.20;97.00
33476;DHT22;19814;48.224;11.422;2023-07-28T14:30:19;22.80;97.80
33476;DHT22;19814;48.224;11.422;2023-07-28T14:32:45;22.60;99.40
33476;DHT22;19814;48.224;11.422;2023-07-28T14:35:10;22.30;99.90
33476;DHT22;19814;48.224;11.422;2023-07-28T14:37:36;22.10;99.90
33476;DHT22;19814;48.224;11.422;2023-07-28T14:40:02;22.00;99.90
33476;DHT22;19814;48.224;11.422;2023-07-28T14:42:27;21.80;99.90
33476;DHT22;19814;48.224;11.422;2023-07-28T14:44:53;21.70;99.90
33476;DHT22;19814;48.224;11.422;2023-07-28T14:47:18;21.70;99.90
33476;DHT22;19814;48.224;11.422;2023-07-28T14:49:44;21.70;99.90
33476;DHT22;19814;48.224;11.422;2023-07-28T14:52:10;21.80;99.90
33476;DHT22;19814;48.224;11.422;2023-07-28T14:54:35;21.80;99.90
33476;DHT22;19814;48.224;11.422;2023-07-28T14:57:01;22.00;99.90
33476;DHT22;19814;48.224;11.422;2023-07-28T14:59:26;22.10;99.90
33476;DHT22;19814;48.224;11.422;2023-07-28T15:01:52;22.30;99.90
33476;DHT22;19814;48.224;11.422;2023-07-28T15:04:17;22.40;99.90
33476;DHT22;19814;48.224;11.422;2023-07-28T15:06:43;22.60;99.90
33476;DHT22;19814;48.224;11.422;2023-07-28T15:09:08;22.70;99.90
33476;DHT22;19814;48.224;11.422;2023-07-28T15:11:34;22.80;99.90
33476;DHT22;19814;48.224;11.422;2023-07-28T15:14:00;22.90;99.90